Time;durP1;ratioP1;P1;durP2;ratioP2;P2;SDS_P1;SDS_P2;PMS_P1;PMS_P2;Temp;Humidity;BMP_temperature;BMP_pressure;BME280_temperature;BME280_humidity;BME280_pressure;Samples;Min_cycle;Max_cycle;Signal;HPM_P1;HPM_P2
2022/07/30 00:00:31;;;;;;;;;;;;;;;;;;4974593;28;19915;-77
2022/07/30 00:02:56;;;;;;;;;;;;;;;;;;4958547;28;19914;-77
2022/07/30 00:05:22;;;;;;;;;;;;;;;;;;4969795;28;19937;-76
2022/07/30 00:07:47;;;;;;;;;;;;;;;;;;4958574;28;19914;-76
2022/07/30 00:10:12;;;;;;;;;;;;;;;;;;4974663;28;19936;-77
2022/07/30 00:12:38;;;;;;;;;;;;;;;;;;4942288;28;19997;-76
2022/07/30 00:15:03;;;;;;;;;;;;;;;;;;4974356;28;19972;-76
2022/07/30 00:17:29;;;;;;;;;;;;;;;;;;4958461;28;19922;-75
2022/07/30 00:19:54;;;;;;;;;;;;;;;;;;4974323;28;20009;-76
2022/07/30 00:22:20;;;;;;;;;;;;;;;;;;4930923;29;20344;-75
2022/07/30 00:24:45;;;;;;;;;;;;;;;;;;4938773;29;19915;-75
2022/07/30 00:27:13;;;;;;;;;;;;;;;;;;4923373;29;19915;-76
2022/07/30 00:29:39;;;;;;;;;;;;;;;;;;4955050;28;20278;-76
2022/07/30 00:32:05;;;;;;;;;;;;;;;;;;4940073;28;19921;-76
2022/07/30 00:34:31;;;;;;;;;;;;;;;;;;4973772;28;19941;-76
2022/07/30 00:36:56;;;;;;;;;;;;;;;;;;4942195;28;19918;-76
2022/07/30 00:39:22;;;;;;;;;;;;;;;;;;4957413;28;19914;-78
2022/07/30 00:41:47;;;;;;;;;;;;;;;;;;4941896;28;20262;-75
2022/07/30 00:44:13;;;;;;;;;;;;;;;;;;4941616;28;19915;-76
2022/07/30 00:46:39;;;;;;;;;;;;;;;;;;4957693;28;19914;-77
2022/07/30 00:49:04;;;;;;;;;;;;;;;;;;4942119;28;19915;-77
2022/07/30 00:51:30;;;;;;;;;;;;;;;;;;4941839;28;19922;-78
2022/07/30 00:53:55;;;;;;;;;;;;;;;;;;4974624;28;19920;-77
2022/07/30 00:56:21;;;;;;;;;;;;;;;;;;4970446;28;19916;-77
2022/07/30 00:58:46;;;;;;;;;;;;;;;;;;4972025;28;19914;-77
2022/07/30 01:01:12;;;;;;;;;;;;;;;;;;4941864;28;19950;-77
2022/07/30 01:03:37;;;;;;;;;;;;;;;;;;4957860;28;19949;-77
2022/07/30 01:06:02;;;;;;;;;;;;;;;;;;4941160;28;19914;-77
2022/07/30 01:08:28;;;;;;;;;;;;;;;;;;4941699;28;19921;-77
2022/07/30 01:10:53;;;;;;;;;;;;;;;;;;4941207;28;20388;-77
2022/07/30 01:13:19;;;;;;;;;;;;;;;;;;4941211;28;19990;-77
2022/07/30 01:15:45;;;;;;;;;;;;;;;;;;4952659;28;20008;-76
2022/07/30 01:18:11;;;;;;;;;;;;;;;;;;4957033;28;20029;-77
2022/07/30 01:20:36;;;;;;;;;;;;;;;;;;4941365;28;20369;-77
2022/07/30 01:23:02;;;;;;;;;;;;;;;;;;4972989;28;20330;-77
2022/07/30 01:25:27;;;;;;;;;;;;;;;;;;4957285;28;19961;-77
2022/07/30 01:27:53;;;;;;;;;;;;;;;;;;4957235;28;20381;-77
2022/07/30 01:30:18;;;;;;;;;;;;;;;;;;4939610;28;20429;-76
2022/07/30 01:32:44;;;;;;;;;;;;;;;;;;4944955;28;19990;-77
2022/07/30 01:35:09;;;;;;;;;;;;;;;;;;4973123;28;20329;-77
2022/07/30 01:37:35;;;;;;;;;;;;;;;;;;4956729;28;19921;-77
2022/07/30 01:40:01;;;;;;;;;;;;;;;;;;4972841;28;19925;-76
2022/07/30 01:42:27;;;;;;;;;;;;;;;;;;4956882;28;20122;-76
2022/07/30 01:44:52;;;;;;;;;;;;;;;;;;4956722;28;20388;-76
2022/07/30 01:47:18;;;;;;;;;;;;;;;;;;4972091;28;19914;-76
2022/07/30 01:49:43;;;;;;;;;;;;;;;;;;4956856;28;19911;-77
2022/07/30 01:52:09;;;;;;;;;;;;;;;;;;4973149;28;19914;-76
2022/07/30 01:54:34;;;;;;;;;;;;;;;;;;4940759;28;19914;-76
2022/07/30 01:57:00;;;;;;;;;;;;;;;;;;4972432;28;19945;-76
2022/07/30 01:59:26;;;;;;;;;;;;;;;;;;4972583;28;20403;-75
2022/07/30 02:01:51;;;;;;;;;;;;;;;;;;4956068;28;19914;-76
2022/07/30 02:04:17;;;;;;;;;;;;;;;;;;4940155;29;19915;-75
2022/07/30 02:06:42;;;;;;;;;;;;;;;;;;4937532;29;19987;-75
2022/07/30 02:09:14;;;;;;;;;;;;;;;;;;4937377;29;20001;-76
2022/07/30 02:14:25;;;;;;;;;;;;;;;;;;4962104;28;19919;-77
2022/07/30 02:16:51;;;;;;;;;;;;;;;;;;4952194;28;19965;-76
2022/07/30 02:19:16;;;;;;;;;;;;;;;;;;4941854;28;19918;-76
2022/07/30 02:21:42;;;;;;;;;;;;;;;;;;4937369;29;20385;-76
2022/07/30 02:24:08;;;;;;;;;;;;;;;;;;4937009;29;19974;-75
2022/07/30 02:26:33;;;;;;;;;;;;;;;;;;4937262;29;19922;-76
2022/07/30 02:28:59;;;;;;;;;;;;;;;;;;4937315;29;19914;-76
2022/07/30 02:31:27;;;;;;;;;;;;;;;;;;4937029;29;20382;-76
2022/07/30 02:33:55;;;;;;;;;;;;;;;;;;4965506;28;19911;-76
2022/07/30 02:36:20;;;;;;;;;;;;;;;;;;4941784;28;20373;-76
2022/07/30 02:38:46;;;;;;;;;;;;;;;;;;4955959;28;19933;-76
2022/07/30 02:41:11;;;;;;;;;;;;;;;;;;4972184;28;20010;-76
2022/07/30 02:43:37;;;;;;;;;;;;;;;;;;4955884;28;20334;-77
2022/07/30 02:46:03;;;;;;;;;;;;;;;;;;4972122;28;19965;-76
2022/07/30 02:48:47;;;;;;;;;;;;;;;;;;4971942;28;20363;-75
2022/07/30 02:51:12;;;;;;;;;;;;;;;;;;4973092;28;20039;-76
2022/07/30 02:53:37;;;;;;;;;;;;;;;;;;4952779;28;19976;-77
2022/07/30 02:56:03;;;;;;;;;;;;;;;;;;4970329;28;19997;-74
2022/07/30 02:58:28;;;;;;;;;;;;;;;;;;4955440;28;19918;-77
2022/07/30 03:00:54;;;;;;;;;;;;;;;;;;4971733;28;19914;-77
2022/07/30 03:03:19;;;;;;;;;;;;;;;;;;4955533;28;19914;-77
2022/07/30 03:05:45;;;;;;;;;;;;;;;;;;4955761;28;20001;-77
2022/07/30 03:08:10;;;;;;;;;;;;;;;;;;4971744;28;19925;-75
2022/07/30 03:10:36;;;;;;;;;;;;;;;;;;4967004;28;19921;-77
2022/07/30 03:13:01;;;;;;;;;;;;;;;;;;4963409;23;19954;-82
2022/07/30 03:15:26;;;;;;;;;;;;;;;;;;4968495;28;20208;-81
2022/07/30 03:17:52;;;;;;;;;;;;;;;;;;4952585;29;20547;-80
2022/07/30 03:20:17;;;;;;;;;;;;;;;;;;4920622;29;19985;-80
2022/07/30 03:22:42;;;;;;;;;;;;;;;;;;4952442;29;19921;-82
2022/07/30 03:25:08;;;;;;;;;;;;;;;;;;4953732;29;19921;-83
2022/07/30 03:27:33;;;;;;;;;;;;;;;;;;4952501;28;20398;-83
2022/07/30 03:30:01;;;;;;;;;;;;;;;;;;4950969;29;20426;-82
2022/07/30 03:32:26;;;;;;;;;;;;;;;;;;4955815;29;20405;-82
2022/07/30 03:34:53;;;;;;;;;;;;;;;;;;4955767;29;19915;-78
2022/07/30 03:37:18;;;;;;;;;;;;;;;;;;4956068;29;19926;-81
2022/07/30 03:39:43;;;;;;;;;;;;;;;;;;4957092;28;20334;-81
2022/07/30 03:42:09;;;;;;;;;;;;;;;;;;4955583;29;20305;-79
2022/07/30 03:44:35;;;;;;;;;;;;;;;;;;4954973;29;20382;-79
2022/07/30 03:47:02;;;;;;;;;;;;;;;;;;4939781;29;20108;-80
2022/07/30 03:49:31;;;;;;;;;;;;;;;;;;4936422;29;19926;-80
2022/07/30 03:51:57;;;;;;;;;;;;;;;;;;4936410;29;20366;-80
2022/07/30 03:54:22;;;;;;;;;;;;;;;;;;4920808;29;19922;-79
2022/07/30 03:57:09;;;;;;;;;;;;;;;;;;4936410;29;19977;-80
2022/07/30 03:59:40;;;;;;;;;;;;;;;;;;4920720;29;19962;-80
2022/07/30 04:02:05;;;;;;;;;;;;;;;;;;4922056;29;19965;-80
2022/07/30 04:04:54;;;;;;;;;;;;;;;;;;4948446;29;20057;-81
2022/07/30 04:07:19;;;;;;;;;;;;;;;;;;4955504;29;20421;-82
2022/07/30 04:09:44;;;;;;;;;;;;;;;;;;4939460;29;20297;-82
2022/07/30 04:12:24;;;;;;;;;;;;;;;;;;4938991;29;20294;-83
2022/07/30 04:14:50;;;;;;;;;;;;;;;;;;4955203;29;19914;-82
2022/07/30 04:17:15;;;;;;;;;;;;;;;;;;4939219;29;20364;-82
2022/07/30 04:19:40;;;;;;;;;;;;;;;;;;4950471;29;20440;-81
2022/07/30 04:22:06;;;;;;;;;;;;;;;;;;4955111;29;20418;-83
2022/07/30 04:24:33;;;;;;;;;;;;;;;;;;4939268;29;20393;-81
2022/07/30 04:26:59;;;;;;;;;;;;;;;;;;4955014;29;19925;-82
2022/07/30 04:29:24;;;;;;;;;;;;;;;;;;4955280;29;19914;-79
2022/07/30 04:31:50;;;;;;;;;;;;;;;;;;4922986;29;19921;-81
2022/07/30 04:34:36;;;;;;;;;;;;;;;;;;4941769;29;20433;-83
2022/07/30 04:37:05;;;;;;;;;;;;;;;;;;4954809;29;20005;-81
2022/07/30 04:39:30;;;;;;;;;;;;;;;;;;4938067;29;20465;-80
2022/07/30 04:41:56;;;;;;;;;;;;;;;;;;4954327;29;19921;-80
2022/07/30 04:44:36;;;;;;;;;;;;;;;;;;4954700;29;20393;-79
2022/07/30 04:47:20;;;;;;;;;;;;;;;;;;4954889;29;19915;-79
2022/07/30 04:50:04;;;;;;;;;;;;;;;;;;4953131;29;20331;-80
2022/07/30 04:52:31;;;;;;;;;;;;;;;;;;4935240;29;21355;-81
2022/07/30 04:54:57;;;;;;;;;;;;;;;;;;4919967;29;20001;-82
2022/07/30 04:57:23;;;;;;;;;;;;;;;;;;4935687;29;20073;-80
2022/07/30 04:59:51;;;;;;;;;;;;;;;;;;4935488;29;20343;-83
2022/07/30 05:02:16;;;;;;;;;;;;;;;;;;4935146;29;20390;-80
2022/07/30 05:04:43;;;;;;;;;;;;;;;;;;4919454;29;19915;-80
2022/07/30 05:07:08;;;;;;;;;;;;;;;;;;4941418;29;19922;-81
2022/07/30 05:09:34;;;;;;;;;;;;;;;;;;4954307;29;20322;-81
2022/07/30 05:12:00;;;;;;;;;;;;;;;;;;4954122;29;19926;-83
2022/07/30 05:14:25;;;;;;;;;;;;;;;;;;4954348;29;19918;-82
2022/07/30 05:16:51;;;;;;;;;;;;;;;;;;4954416;29;19915;-82
2022/07/30 05:19:16;;;;;;;;;;;;;;;;;;4970980;28;19922;-83
2022/07/30 05:21:41;;;;;;;;;;;;;;;;;;4955421;29;19921;-81
2022/07/30 05:24:07;;;;;;;;;;;;;;;;;;4974443;28;19902;-81
2022/07/30 05:26:38;;;;;;;;;;;;;;;;;;4972833;29;19903;-82
2022/07/30 05:29:04;;;;;;;;;;;;;;;;;;4977565;29;19925;-80
2022/07/30 05:31:41;;;;;;;;;;;;;;;;;;4973476;29;19930;-82
2022/07/30 05:34:07;;;;;;;;;;;;;;;;;;4942113;29;20000;-81
2022/07/30 05:36:43;;;;;;;;;;;;;;;;;;4945611;29;20009;-81
2022/07/30 05:39:10;;;;;;;;;;;;;;;;;;4959430;29;19973;-81
2022/07/30 05:41:58;;;;;;;;;;;;;;;;;;4918304;28;19915;-82
2022/07/30 05:44:34;;;;;;;;;;;;;;;;;;4920128;29;20335;-80
2022/07/30 05:47:00;;;;;;;;;;;;;;;;;;4925078;29;19919;-82
2022/07/30 05:49:25;;;;;;;;;;;;;;;;;;4950086;29;20374;-78
2022/07/30 05:51:52;;;;;;;;;;;;;;;;;;4919987;29;20455;-79
2022/07/30 05:54:17;;;;;;;;;;;;;;;;;;4949402;29;19915;-78
2022/07/30 05:57:01;;;;;;;;;;;;;;;;;;4952553;29;19922;-79
2022/07/30 05:59:30;;;;;;;;;;;;;;;;;;4953932;29;19903;-79
2022/07/30 06:02:05;;;;;;;;;;;;;;;;;;4948230;29;19977;-78
2022/07/30 06:04:53;;;;;;;;;;;;;;;;;;4934058;29;19915;-78
2022/07/30 06:07:19;;;;;;;;;;;;;;;;;;4934102;29;19925;-78
2022/07/30 06:09:44;;;;;;;;;;;;;;;;;;4935304;29;19911;-79
2022/07/30 06:12:10;;;;;;;;;;;;;;;;;;4941900;29;20009;-79
2022/07/30 06:14:35;;;;;;;;;;;;;;;;;;4948911;29;19974;-79
2022/07/30 06:17:02;;;;;;;;;;;;;;;;;;4945053;29;20410;-79
2022/07/30 06:19:40;;;;;;;;;;;;;;;;;;4946510;29;19925;-78
2022/07/30 06:22:05;;;;;;;;;;;;;;;;;;4964247;29;19982;-81
2022/07/30 06:24:31;;;;;;;;;;;;;;;;;;4947980;29;19910;-79
2022/07/30 06:27:02;;;;;;;;;;;;;;;;;;4915324;29;19922;-78
2022/07/30 06:29:28;;;;;;;;;;;;;;;;;;4927001;29;19923;-80
2022/07/30 06:31:53;;;;;;;;;;;;;;;;;;4918135;29;19915;-82
2022/07/30 06:34:19;;;;;;;;;;;;;;;;;;4919604;29;19911;-80
2022/07/30 06:36:44;;;;;;;;;;;;;;;;;;4951091;29;19981;-81
2022/07/30 06:39:14;;;;;;;;;;;;;;;;;;4939221;29;20294;-79
2022/07/30 06:42:06;;;;;;;;;;;;;;;;;;4932098;28;20005;-76
2022/07/30 06:44:57;;;;;;;;;;;;;;;;;;4955463;29;19914;-82
2022/07/30 06:47:27;;;;;;;;;;;;;;;;;;4951647;29;19953;-82
2022/07/30 06:49:54;;;;;;;;;;;;;;;;;;4957879;29;19921;-81
2022/07/30 06:52:20;;;;;;;;;;;;;;;;;;4958064;29;19916;-81
2022/07/30 06:54:49;;;;;;;;;;;;;;;;;;4942331;29;20417;-81
2022/07/30 06:57:21;;;;;;;;;;;;;;;;;;4941411;29;19925;-82
2022/07/30 06:59:47;;;;;;;;;;;;;;;;;;4954128;29;19914;-81
2022/07/30 07:02:20;;;;;;;;;;;;;;;;;;4952175;28;19965;-82
2022/07/30 07:05:09;;;;;;;;;;;;;;;;;;4946943;29;19968;-82
2022/07/30 07:07:35;;;;;;;;;;;;;;;;;;4956116;29;19918;-80
2022/07/30 07:10:00;;;;;;;;;;;;;;;;;;4940199;29;20054;-83
2022/07/30 07:12:44;;;;;;;;;;;;;;;;;;4955903;29;20386;-81
2022/07/30 07:15:10;;;;;;;;;;;;;;;;;;4956823;29;19945;-81
2022/07/30 07:17:36;;;;;;;;;;;;;;;;;;4959330;29;19986;-80
2022/07/30 07:20:01;;;;;;;;;;;;;;;;;;4962972;28;19965;-81
2022/07/30 07:22:29;;;;;;;;;;;;;;;;;;4944616;29;19918;-81
2022/07/30 07:24:55;;;;;;;;;;;;;;;;;;4961436;29;19910;-82
2022/07/30 07:27:24;;;;;;;;;;;;;;;;;;4961786;29;19915;-81
2022/07/30 07:29:54;;;;;;;;;;;;;;;;;;4958907;29;19921;-80
2022/07/30 07:32:19;;;;;;;;;;;;;;;;;;4940320;29;19914;-81
2022/07/30 07:34:45;;;;;;;;;;;;;;;;;;4955750;29;19954;-80
2022/07/30 07:37:11;;;;;;;;;;;;;;;;;;4953234;29;20370;-79
2022/07/30 07:39:36;;;;;;;;;;;;;;;;;;4920595;29;19915;-79
2022/07/30 07:42:02;;;;;;;;;;;;;;;;;;4920832;29;19915;-80
2022/07/30 07:44:28;;;;;;;;;;;;;;;;;;4936893;29;19915;-80
2022/07/30 07:46:54;;;;;;;;;;;;;;;;;;4936400;29;19911;-81
2022/07/30 07:49:20;;;;;;;;;;;;;;;;;;4936450;29;19915;-81
2022/07/30 07:51:49;;;;;;;;;;;;;;;;;;4920398;29;19919;-80
2022/07/30 07:54:18;;;;;;;;;;;;;;;;;;4936145;29;19915;-80
2022/07/30 07:56:44;;;;;;;;;;;;;;;;;;4942713;29;19914;-80
2022/07/30 07:59:11;;;;;;;;;;;;;;;;;;4939723;29;19911;-81
2022/07/30 08:01:36;;;;;;;;;;;;;;;;;;4955634;29;19921;-80
2022/07/30 08:04:20;;;;;;;;;;;;;;;;;;4942152;29;19915;-80
2022/07/30 08:07:05;;;;;;;;;;;;;;;;;;4956594;29;19915;-81
2022/07/30 08:09:49;;;;;;;;;;;;;;;;;;4955717;29;19918;-80
2022/07/30 08:12:33;;;;;;;;;;;;;;;;;;4951265;29;19925;-81
2022/07/30 08:15:18;;;;;;;;;;;;;;;;;;4936965;29;20375;-81
2022/07/30 08:17:55;;;;;;;;;;;;;;;;;;4937102;29;20375;-80
2022/07/30 08:20:34;;;;;;;;;;;;;;;;;;4936131;29;19915;-80
2022/07/30 08:22:59;;;;;;;;;;;;;;;;;;4935608;29;19949;-81
2022/07/30 08:25:26;;;;;;;;;;;;;;;;;;4935896;29;20401;-81
2022/07/30 08:27:51;;;;;;;;;;;;;;;;;;4935737;29;20013;-81
2022/07/30 08:30:17;;;;;;;;;;;;;;;;;;4936709;29;20066;-80
2022/07/30 08:32:42;;;;;;;;;;;;;;;;;;4949505;29;19977;-80
2022/07/30 08:35:08;;;;;;;;;;;;;;;;;;4954625;29;19937;-81
2022/07/30 08:37:33;;;;;;;;;;;;;;;;;;4954918;29;19970;-81
2022/07/30 08:39:59;;;;;;;;;;;;;;;;;;4938596;29;19925;-81
2022/07/30 08:42:24;;;;;;;;;;;;;;;;;;4954575;29;19923;-81
2022/07/30 08:44:49;;;;;;;;;;;;;;;;;;4938292;29;19921;-80
2022/07/30 08:47:16;;;;;;;;;;;;;;;;;;4954529;29;20001;-81
2022/07/30 08:50:07;;;;;;;;;;;;;;;;;;4944009;28;19918;-81
2022/07/30 08:52:36;;;;;;;;;;;;;;;;;;4919311;29;20022;-81
2022/07/30 08:55:01;;;;;;;;;;;;;;;;;;4919640;29;20017;-81
2022/07/30 08:57:27;;;;;;;;;;;;;;;;;;4935355;29;19950;-81
2022/07/30 08:59:52;;;;;;;;;;;;;;;;;;4935402;29;20400;-80
2022/07/30 09:02:18;;;;;;;;;;;;;;;;;;4935168;29;20005;-81
2022/07/30 09:04:56;;;;;;;;;;;;;;;;;;4922101;29;19994;-81
2022/07/30 09:07:21;;;;;;;;;;;;;;;;;;4954734;29;19978;-81
2022/07/30 09:09:47;;;;;;;;;;;;;;;;;;4955691;29;19932;-81
2022/07/30 09:12:12;;;;;;;;;;;;;;;;;;4954509;29;19915;-84
2022/07/30 09:14:50;;;;;;;;;;;;;;;;;;4974021;28;19954;-77
2022/07/30 09:17:18;;;;;;;;;;;;;;;;;;4959166;28;20165;-76
2022/07/30 09:19:44;;;;;;;;;;;;;;;;;;4990116;28;20334;-76
2022/07/30 09:22:10;;;;;;;;;;;;;;;;;;4984968;28;19914;-76
2022/07/30 09:25:02;;;;;;;;;;;;;;;;;;4957281;28;20009;-77
2022/07/30 09:27:46;;;;;;;;;;;;;;;;;;4967826;28;19914;-76
2022/07/30 09:30:32;;;;;;;;;;;;;;;;;;4928480;28;20005;-77
2022/07/30 09:33:16;;;;;;;;;;;;;;;;;;4953697;29;20441;-77
2022/07/30 09:36:10;;;;;;;;;;;;;;;;;;4953461;29;19926;-77
2022/07/30 09:39:05;;;;;;;;;;;;;;;;;;4930983;28;20229;-77
2022/07/30 09:42:00;;;;;;;;;;;;;;;;;;4935579;29;19921;-79
2022/07/30 09:44:28;;;;;;;;;;;;;;;;;;4935355;29;19915;-78
2022/07/30 09:46:55;;;;;;;;;;;;;;;;;;4951330;29;20354;-78
2022/07/30 09:49:28;;;;;;;;;;;;;;;;;;4934819;29;19919;-76
2022/07/30 09:51:54;;;;;;;;;;;;;;;;;;4934362;29;19970;-77
2022/07/30 09:54:20;;;;;;;;;;;;;;;;;;4950401;29;19964;-78
2022/07/30 09:56:49;;;;;;;;;;;;;;;;;;4942201;29;19942;-78
2022/07/30 09:59:14;;;;;;;;;;;;;;;;;;4954382;29;20035;-78
2022/07/30 10:01:40;;;;;;;;;;;;;;;;;;4953836;29;19960;-78
2022/07/30 10:04:24;;;;;;;;;;;;;;;;;;4953577;29;19918;-78
2022/07/30 10:06:59;;;;;;;;;;;;;;;;;;4969409;28;19920;-76
2022/07/30 10:09:30;;;;;;;;;;;;;;;;;;4953564;29;20002;-77
2022/07/30 10:11:55;;;;;;;;;;;;;;;;;;4954571;28;20377;-77
2022/07/30 10:14:21;;;;;;;;;;;;;;;;;;4950437;29;19918;-77
2022/07/30 10:16:47;;;;;;;;;;;;;;;;;;4949632;29;20005;-76
2022/07/30 10:19:13;;;;;;;;;;;;;;;;;;4933845;29;20010;-78
2022/07/30 10:22:02;;;;;;;;;;;;;;;;;;4924689;29;19915;-76
2022/07/30 10:25:03;;;;;;;;;;;;;;;;;;4935027;29;19919;-78
2022/07/30 10:28:04;;;;;;;;;;;;;;;;;;4913744;29;19922;-78
2022/07/30 10:30:30;;;;;;;;;;;;;;;;;;4910397;29;19922;-78
2022/07/30 10:32:56;;;;;;;;;;;;;;;;;;4950357;28;19914;-77
2022/07/30 10:35:21;;;;;;;;;;;;;;;;;;4953833;29;19937;-78
2022/07/30 10:37:47;;;;;;;;;;;;;;;;;;4952334;28;19950;-78
2022/07/30 10:40:12;;;;;;;;;;;;;;;;;;4952878;28;19915;-77
2022/07/30 10:42:40;;;;;;;;;;;;;;;;;;4937288;29;19915;-78
2022/07/30 10:45:06;;;;;;;;;;;;;;;;;;4953189;29;20407;-79
2022/07/30 10:47:32;;;;;;;;;;;;;;;;;;4937154;29;20326;-77
2022/07/30 10:49:57;;;;;;;;;;;;;;;;;;4968113;28;19926;-76
2022/07/30 10:52:23;;;;;;;;;;;;;;;;;;4937807;28;19926;-79
2022/07/30 10:54:48;;;;;;;;;;;;;;;;;;4949341;29;20050;-77
2022/07/30 10:57:13;;;;;;;;;;;;;;;;;;4933478;29;19954;-77
2022/07/30 10:59:39;;;;;;;;;;;;;;;;;;4933827;29;20300;-79
2022/07/30 11:02:10;;;;;;;;;;;;;;;;;;4949526;29;19915;-78
2022/07/30 11:04:39;;;;;;;;;;;;;;;;;;4950811;29;19923;-78
2022/07/30 11:07:04;;;;;;;;;;;;;;;;;;4951374;29;19921;-76
2022/07/30 11:09:32;;;;;;;;;;;;;;;;;;4937771;29;19915;-78
2022/07/30 11:11:58;;;;;;;;;;;;;;;;;;4954392;28;19915;-77
2022/07/30 11:14:24;;;;;;;;;;;;;;;;;;4951916;29;20010;-78
2022/07/30 11:16:50;;;;;;;;;;;;;;;;;;4936099;29;20259;-78
2022/07/30 11:19:16;;;;;;;;;;;;;;;;;;4953287;29;19918;-78
2022/07/30 11:21:41;;;;;;;;;;;;;;;;;;4936123;29;19922;-77
2022/07/30 11:24:10;;;;;;;;;;;;;;;;;;4936432;29;19969;-78
2022/07/30 11:26:35;;;;;;;;;;;;;;;;;;4933994;29;20009;-77
2022/07/30 11:29:01;;;;;;;;;;;;;;;;;;4966380;28;19918;-78
2022/07/30 11:31:26;;;;;;;;;;;;;;;;;;4952324;29;19917;-77
2022/07/30 11:33:52;;;;;;;;;;;;;;;;;;4936007;29;19914;-75
2022/07/30 11:36:17;;;;;;;;;;;;;;;;;;4936608;29;19921;-77
2022/07/30 11:38:43;;;;;;;;;;;;;;;;;;4951968;29;19922;-78
2022/07/30 11:41:11;;;;;;;;;;;;;;;;;;4952166;29;19921;-78
2022/07/30 11:43:40;;;;;;;;;;;;;;;;;;4936068;29;19922;-78
2022/07/30 11:46:05;;;;;;;;;;;;;;;;;;4931583;29;19919;-78
2022/07/30 11:48:31;;;;;;;;;;;;;;;;;;4968561;28;19981;-78
2022/07/30 11:50:56;;;;;;;;;;;;;;;;;;4955418;29;19914;-78
2022/07/30 11:53:22;;;;;;;;;;;;;;;;;;4955992;29;19981;-78
2022/07/30 11:55:48;;;;;;;;;;;;;;;;;;4955429;29;19915;-78
2022/07/30 11:58:13;;;;;;;;;;;;;;;;;;4955586;29;19994;-78
2022/07/30 12:00:39;;;;;;;;;;;;;;;;;;4955527;29;19954;-78
2022/07/30 12:03:04;;;;;;;;;;;;;;;;;;4971274;28;20009;-78
2022/07/30 12:05:30;;;;;;;;;;;;;;;;;;4953628;29;19942;-76
2022/07/30 12:07:55;;;;;;;;;;;;;;;;;;4964457;29;20455;-78
2022/07/30 12:10:21;;;;;;;;;;;;;;;;;;4977619;28;19914;-79
2022/07/30 12:12:47;;;;;;;;;;;;;;;;;;4957917;28;19921;-79
2022/07/30 12:15:13;;;;;;;;;;;;;;;;;;4924411;29;19924;-77
2022/07/30 12:17:38;;;;;;;;;;;;;;;;;;4939383;29;20017;-79
2022/07/30 12:20:03;;;;;;;;;;;;;;;;;;4936632;29;19957;-78
2022/07/30 12:22:29;;;;;;;;;;;;;;;;;;4968982;28;20429;-79
2022/07/30 12:24:54;;;;;;;;;;;;;;;;;;4939169;29;19978;-78
2022/07/30 12:27:20;;;;;;;;;;;;;;;;;;4956199;28;19930;-78
2022/07/30 12:29:45;;;;;;;;;;;;;;;;;;4954991;29;19918;-78
2022/07/30 12:32:11;;;;;;;;;;;;;;;;;;4970772;28;19921;-78
2022/07/30 12:34:36;;;;;;;;;;;;;;;;;;4954509;29;19915;-79
2022/07/30 12:37:02;;;;;;;;;;;;;;;;;;4955868;28;20371;-80
2022/07/30 12:39:27;;;;;;;;;;;;;;;;;;4949869;29;19978;-79
2022/07/30 12:41:54;;;;;;;;;;;;;;;;;;4970410;28;19962;-81
2022/07/30 12:44:20;;;;;;;;;;;;;;;;;;4970540;28;19915;-79
2022/07/30 12:46:45;;;;;;;;;;;;;;;;;;4954604;29;19922;-78
2022/07/30 12:49:11;;;;;;;;;;;;;;;;;;4954423;29;20282;-80
2022/07/30 12:51:36;;;;;;;;;;;;;;;;;;4956010;29;19915;-79
2022/07/30 12:54:02;;;;;;;;;;;;;;;;;;4953173;28;19949;-80
2022/07/30 12:56:27;;;;;;;;;;;;;;;;;;4939048;29;19953;-80
2022/07/30 12:58:53;;;;;;;;;;;;;;;;;;4939684;29;19922;-79
2022/07/30 13:01:18;;;;;;;;;;;;;;;;;;4947936;29;20398;-79
2022/07/30 13:03:44;;;;;;;;;;;;;;;;;;4961196;29;19915;-80
2022/07/30 13:06:10;;;;;;;;;;;;;;;;;;4961274;29;19922;-79
2022/07/30 13:08:35;;;;;;;;;;;;;;;;;;4956614;29;19915;-78
2022/07/30 13:11:01;;;;;;;;;;;;;;;;;;4920508;29;20285;-78
2022/07/30 13:13:26;;;;;;;;;;;;;;;;;;4940762;29;20382;-78
2022/07/30 13:15:52;;;;;;;;;;;;;;;;;;4950869;29;19914;-78
2022/07/30 13:18:17;;;;;;;;;;;;;;;;;;4950778;29;19918;-78
2022/07/30 13:20:43;;;;;;;;;;;;;;;;;;4935985;29;20338;-76
2022/07/30 13:23:08;;;;;;;;;;;;;;;;;;4934832;29;19978;-78
2022/07/30 13:25:34;;;;;;;;;;;;;;;;;;4935759;29;19914;-78
2022/07/30 13:27:59;;;;;;;;;;;;;;;;;;4934642;29;19918;-78
2022/07/30 13:30:25;;;;;;;;;;;;;;;;;;4937479;29;19914;-77
2022/07/30 13:32:50;;;;;;;;;;;;;;;;;;4935425;29;20022;-77
2022/07/30 13:35:16;;;;;;;;;;;;;;;;;;4934562;29;19950;-78
2022/07/30 13:37:41;;;;;;;;;;;;;;;;;;4950384;29;19918;-77
2022/07/30 13:40:09;;;;;;;;;;;;;;;;;;4934130;29;20510;-79
2022/07/30 13:42:35;;;;;;;;;;;;;;;;;;4950057;29;19915;-77
2022/07/30 13:45:00;;;;;;;;;;;;;;;;;;4950242;29;19982;-78
2022/07/30 13:47:26;;;;;;;;;;;;;;;;;;4935530;29;19915;-78
2022/07/30 13:49:52;;;;;;;;;;;;;;;;;;4953461;29;19938;-78
2022/07/30 13:52:17;;;;;;;;;;;;;;;;;;4953405;29;19982;-78
2022/07/30 13:54:43;;;;;;;;;;;;;;;;;;4954275;29;20356;-78
2022/07/30 13:57:08;;;;;;;;;;;;;;;;;;4969317;28;19930;-78
2022/07/30 13:59:33;;;;;;;;;;;;;;;;;;4954476;29;19914;-78
2022/07/30 14:01:59;;;;;;;;;;;;;;;;;;4954213;29;20009;-78
2022/07/30 14:04:24;;;;;;;;;;;;;;;;;;4949455;28;19937;-78
2022/07/30 14:06:50;;;;;;;;;;;;;;;;;;4952986;29;19933;-78
2022/07/30 14:09:16;;;;;;;;;;;;;;;;;;4937307;29;19914;-78
2022/07/30 14:11:41;;;;;;;;;;;;;;;;;;4952731;28;19914;-78
2022/07/30 14:14:06;;;;;;;;;;;;;;;;;;4952265;29;20294;-78
2022/07/30 14:16:32;;;;;;;;;;;;;;;;;;4953905;29;19949;-77
2022/07/30 14:18:59;;;;;;;;;;;;;;;;;;4954048;29;19919;-78
2022/07/30 14:21:27;;;;;;;;;;;;;;;;;;4917521;29;20271;-78
2022/07/30 14:23:53;;;;;;;;;;;;;;;;;;4934795;29;19951;-78
2022/07/30 14:26:19;;;;;;;;;;;;;;;;;;4949700;29;20441;-80
2022/07/30 14:28:44;;;;;;;;;;;;;;;;;;4950033;29;19961;-79
2022/07/30 14:31:10;;;;;;;;;;;;;;;;;;4949852;29;20374;-80
2022/07/30 14:33:35;;;;;;;;;;;;;;;;;;4934837;29;20058;-80
2022/07/30 14:36:01;;;;;;;;;;;;;;;;;;4950171;29;19930;-78
2022/07/30 14:38:27;;;;;;;;;;;;;;;;;;4933054;29;20025;-78
2022/07/30 14:40:52;;;;;;;;;;;;;;;;;;4968777;28;20442;-81
2022/07/30 14:43:18;;;;;;;;;;;;;;;;;;4953620;29;20389;-79
2022/07/30 14:45:44;;;;;;;;;;;;;;;;;;4952542;29;20397;-78
2022/07/30 14:48:09;;;;;;;;;;;;;;;;;;4967895;28;19922;-78
2022/07/30 14:50:34;;;;;;;;;;;;;;;;;;4953765;29;19915;-78
2022/07/30 14:53:00;;;;;;;;;;;;;;;;;;4968217;28;20025;-78
2022/07/30 14:55:25;;;;;;;;;;;;;;;;;;4946524;29;19926;-77
2022/07/30 14:57:51;;;;;;;;;;;;;;;;;;4949282;29;20013;-78
2022/07/30 15:00:16;;;;;;;;;;;;;;;;;;4919126;29;20001;-78
2022/07/30 15:02:44;;;;;;;;;;;;;;;;;;4933394;29;19922;-79
2022/07/30 15:05:09;;;;;;;;;;;;;;;;;;4949335;29;20293;-79
2022/07/30 15:07:35;;;;;;;;;;;;;;;;;;4933552;29;19910;-77
2022/07/30 15:10:01;;;;;;;;;;;;;;;;;;4917524;29;19919;-77
2022/07/30 15:12:26;;;;;;;;;;;;;;;;;;4945479;29;19919;-79
2022/07/30 15:14:52;;;;;;;;;;;;;;;;;;4979307;23;19926;-77
2022/07/30 15:17:17;;;;;;;;;;;;;;;;;;4953062;29;20006;-78
2022/07/30 15:19:43;;;;;;;;;;;;;;;;;;4953423;29;19925;-78
2022/07/30 15:22:09;;;;;;;;;;;;;;;;;;4968531;28;19914;-78
2022/07/30 15:24:35;;;;;;;;;;;;;;;;;;4954577;28;19922;-77
2022/07/30 15:27:00;;;;;;;;;;;;;;;;;;4923451;29;19914;-78
2022/07/30 15:29:28;;;;;;;;;;;;;;;;;;4956490;29;19914;-77
2022/07/30 15:31:53;;;;;;;;;;;;;;;;;;4956633;29;20358;-78
2022/07/30 15:34:18;;;;;;;;;;;;;;;;;;4955280;29;19917;-77
2022/07/30 15:36:44;;;;;;;;;;;;;;;;;;4956938;29;19925;-80
2022/07/30 15:39:09;;;;;;;;;;;;;;;;;;4956523;29;19994;-79
2022/07/30 15:41:34;;;;;;;;;;;;;;;;;;4956734;29;19922;-78
2022/07/30 15:44:00;;;;;;;;;;;;;;;;;;4955550;29;19922;-77
2022/07/30 15:46:25;;;;;;;;;;;;;;;;;;4956446;29;20436;-77
2022/07/30 15:48:50;;;;;;;;;;;;;;;;;;4956599;29;19918;-78
2022/07/30 15:51:16;;;;;;;;;;;;;;;;;;4956222;29;20372;-79
2022/07/30 15:53:42;;;;;;;;;;;;;;;;;;4956275;29;19919;-79
2022/07/30 15:56:07;;;;;;;;;;;;;;;;;;4939354;29;20309;-79
2022/07/30 15:58:32;;;;;;;;;;;;;;;;;;4956323;29;19918;-79
2022/07/30 16:00:58;;;;;;;;;;;;;;;;;;4956290;29;19914;-78
2022/07/30 16:03:23;;;;;;;;;;;;;;;;;;4955132;29;19921;-79
2022/07/30 16:05:48;;;;;;;;;;;;;;;;;;4956500;28;19914;-80
2022/07/30 16:08:14;;;;;;;;;;;;;;;;;;4956403;28;19954;-79
2022/07/30 16:10:39;;;;;;;;;;;;;;;;;;4956061;28;19921;-79
2022/07/30 16:13:05;;;;;;;;;;;;;;;;;;4955411;28;19968;-78
2022/07/30 16:15:30;;;;;;;;;;;;;;;;;;4938618;29;20390;-78
2022/07/30 16:17:55;;;;;;;;;;;;;;;;;;4938428;29;20386;-79
2022/07/30 16:20:21;;;;;;;;;;;;;;;;;;4921114;29;19914;-78
2022/07/30 16:22:46;;;;;;;;;;;;;;;;;;4936364;29;19915;-78
2022/07/30 16:25:11;;;;;;;;;;;;;;;;;;4935479;29;20414;-78
2022/07/30 16:27:37;;;;;;;;;;;;;;;;;;4936448;29;19943;-79
2022/07/30 16:30:02;;;;;;;;;;;;;;;;;;4936323;29;19938;-78
2022/07/30 16:32:27;;;;;;;;;;;;;;;;;;4936358;29;19941;-78
2022/07/30 16:34:53;;;;;;;;;;;;;;;;;;4936087;29;19915;-78
2022/07/30 16:37:18;;;;;;;;;;;;;;;;;;4947837;29;20464;-78
2022/07/30 16:39:44;;;;;;;;;;;;;;;;;;4955960;29;20314;-79
2022/07/30 16:42:09;;;;;;;;;;;;;;;;;;4955898;28;19918;-78
2022/07/30 16:44:34;;;;;;;;;;;;;;;;;;4955090;29;19915;-79
2022/07/30 16:47:00;;;;;;;;;;;;;;;;;;4939494;29;19994;-78
2022/07/30 16:49:25;;;;;;;;;;;;;;;;;;4958171;28;19953;-78
2022/07/30 16:51:51;;;;;;;;;;;;;;;;;;4958099;28;19954;-78